Nearby METAR Reports

 

KMRB - Martinsburg, West Virginia, USA
Distance from station: NNW 9mi, 14km
Updated: 04/02/2020 10:53pm
Clear
Clear
 Wind from NW
Wind: NW 14 mph , 22 km/h, Gust: 23 mph , 37 km/h
Temperature: 52°F , 11°C
Dew Point: 25°F , -4°C
Humidity: 35%
Barometer: 29.88 inHg , 1011.9 hPa
Clouds: Clear
Visibility: 10 miles , 16 km
2020/04/03 02:53 KMRB 030253Z AUTO 32012G20KT 10SM CLR 11/M04 A2988 RMK AO2 SLP117 T01061044 51010
KOKV - Winchester Rgnl, Virginia, USA
Distance from station: SW 17mi, 28km
Updated: 04/02/2020 11:35pm
Clear
Clear
 Wind from NW
Wind: NW 15 mph , 24 km/h, Gust: 26 mph , 43 km/h
Temperature: 50°F , 10°C
Wind Chill: 45°F , 7°C
Dew Point: 25°F , -4°C
Humidity: 37%
Barometer: 29.88 inHg , 1011.9 hPa
Clouds: Clear
Visibility: 10 miles , 16 km
2020/04/03 03:35 KOKV 030335Z AUTO 32013G23KT 10SM CLR 10/M04 A2988 RMK AO2
 
KJYO - Leesburg/Godfrey, Virginia, USA
Distance from station: SE 23mi, 38km
Updated: 04/02/2020 11:55pm
Clear
Clear
 Wind from NNW
Wind: NNW 9 mph , 15 km/h, Gust: 24 mph , 39 km/h
Temperature: 52°F , 11°C
Dew Point: 30°F , -1°C
Humidity: 44%
Barometer: 29.88 inHg , 1011.9 hPa
Clouds: Clear
Visibility: 10 miles , 16 km
2020/04/03 03:55 KJYO 030355Z AUTO 34008G21KT 10SM CLR 11/M01 A2988 RMK AO2
KFDK - Frederick, Maryland, USA
Distance from station: ENE 30mi, 48km
Updated: 04/02/2020 11:50pm
Clear
Clear
 Wind from NW
Wind: NW 13 mph , 20 km/h, Gust: 21 mph , 33 km/h
Temperature: 52°F , 11°C
Dew Point: 27°F , -3°C
Humidity: 38%
Barometer: 29.86 inHg , 1011.2 hPa
Clouds: Clear
Visibility: 10 miles , 16 km
2020/04/03 03:50 KFDK 030350Z AUTO 31011G18KT 10SM CLR 11/M03 A2986 RMK AO2
 
KHGR - Hagerstown, Maryland, USA
Distance from station: NNE 30mi, 48km
Updated: 04/02/2020 10:53pm
Clear
Clear
 Wind from NW
Wind: NW 15 mph , 24 km/h
Temperature: 52°F , 11°C
Dew Point: 25°F , -4°C
Humidity: 35%
Barometer: 29.87 inHg , 1011.5 hPa
Clouds: Clear
Visibility: 10 miles , 16 km
2020/04/03 02:53 KHGR 030253Z AUTO 32013KT 10SM CLR 11/M04 A2987 RMK AO2 SLP126 T01061039 51011
KIAD - Wash Dc/Dulles, Virginia, USA
Distance from station: SE 34mi, 55km
Updated: 04/02/2020 10:52pm
Clear
Clear
 Wind from NW
Wind: NW 18 mph , 30 km/h, Gust: 30 mph , 48 km/h
Temperature: 54°F , 12°C
Dew Point: 25°F , -4°C
Humidity: 33%
Barometer: 29.84 inHg , 1010.5 hPa
Clouds: Clear
Visibility: 10 miles , 16 km
2020/04/03 02:52 KIAD 030252Z 32016G26KT 10SM CLR 12/M04 A2984 RMK AO2 PK WND 32026/0243 SLP106 T01221044 51011
 
KRSP - Nsf Thurmont, Maryland, USA
Distance from station: NE 34mi, 55km
Updated: 03/20/2020 2:43am
NOT Current
Mist, Overcast
Mist, Overcast
 Wind from SW
Wind: SW 12 mph , 19 km/h, Gust: 20 mph , 31 km/h
Temperature: 55°F , 13°C
Dew Point: 55°F , 13°C
Humidity: 100%
Barometer: 30.06 inHg , 1017.9 hPa
Summary: Mist
Clouds: Overcast
Visibility: 2 miles , 3 km
Cloud details: Overcast 100 ft
2020/03/20 06:43 KRSP 200643Z AUTO 23010G17KT 2SM BR OVC001 13/13 A3006 RMK AO2 $
KGAI - Gaithersburg, Maryland, USA
Distance from station: E 40mi, 64km
Updated: 04/02/2020 10:56pm
Clear
Clear
 Wind from NW
Wind: NW 12 mph , 19 km/h, Gust: 22 mph , 35 km/h
Temperature: 54°F , 12°C
Dew Point: 25°F , -4°C
Humidity: 33%
Barometer: 29.84 inHg , 1010.5 hPa
Clouds: Clear
Visibility: 10 miles , 16 km
2020/04/03 02:56 KGAI 030256Z AUTO 32010G19KT 10SM CLR 12/M04 A2984 RMK AO2 SLP119 T01171044 51011
 
KRYT - Fountain Dale, Pennsylvania, USA
Distance from station: NE 40mi, 64km
Updated: 11/13/2017 7:53am
NOT Current
Mist, Overcast
Mist, Overcast
 Wind from calm
Wind: Calm
Temperature: 37°F , 3°C
Dew Point: 34°F , 1°C
Humidity: 87%
Barometer: 30.31 inHg , 1026.4 hPa
Summary: Mist
Clouds: Overcast
Visibility: 5 miles , 8 km
Cloud details: Overcast 700 ft
2017/11/13 12:53 KRYT 131253Z AUTO 00000KT 5SM BR OVC007 03/01 A3031 RMK AO2 SLP275 T00280011 TSNO $
KHEF - Manassas Muni, Virginia, USA
Distance from station: SSE 44mi, 72km
Updated: 04/02/2020 10:56pm
Clear
Clear
 Wind from NNW
Wind: NNW 17 mph , 28 km/h, Gust: 24 mph , 39 km/h
Temperature: 54°F , 12°C
Dew Point: 27°F , -3°C
Humidity: 35%
Barometer: 29.86 inHg , 1011.2 hPa
Clouds: Clear
Visibility: 10 miles , 16 km
2020/04/03 02:56 KHEF 030256Z AUTO 34015G21KT 10SM CLR 12/M03 A2986 RMK AO2 SLP117 T01221033 51012
 
KHWY - Warrenton, Virginia, USA
Distance from station: SSE 50mi, 80km
Updated: 04/02/2020 11:35pm
Clear
Clear
 Wind from NW
Wind: NW 9 mph , 15 km/h
Temperature: 54°F , 12°C
Dew Point: 21°F , -6°C
Humidity: 28%
Barometer: 29.87 inHg , 1011.5 hPa
Clouds: Clear
Visibility: 10 miles , 16 km
2020/04/03 03:35 KHWY 030335Z AUTO 32008KT 10SM CLR 12/M06 A2987 RMK AO2 T01201060